Time;durP1;ratioP1;P1;durP2;ratioP2;P2;SDS_P1;SDS_P2;PMS_P1;PMS_P2;Temp;Humidity;BMP_temperature;BMP_pressure;BME280_temperature;BME280_humidity;BME280_pressure;Samples;Min_cycle;Max_cycle;Signal;HPM_P1;HPM_P2
2024/01/20 00:01:49;;;;;;;;;;;19.10;46.60;;;;;;5012665;28;20020;-64
2024/01/20 00:04:15;;;;;;;;;;;19.00;46.50;;;;;;5030144;28;19925;-65
2024/01/20 00:06:40;;;;;;;;;;;19.00;46.60;;;;;;5036233;28;20357;-65
2024/01/20 00:09:07;;;;;;;;;;;19.00;46.40;;;;;;5035474;28;19929;-65
2024/01/20 00:11:32;;;;;;;;;;;19.00;46.50;;;;;;5002979;28;20389;-65
2024/01/20 00:13:58;;;;;;;;;;;19.00;46.50;;;;;;5014214;28;19925;-65
2024/01/20 00:16:23;;;;;;;;;;;19.00;46.50;;;;;;5032999;28;19979;-65
2024/01/20 00:18:49;;;;;;;;;;;19.00;46.80;;;;;;5016103;28;20328;-65
2024/01/20 00:21:14;;;;;;;;;;;19.00;46.50;;;;;;5016181;28;19928;-65
2024/01/20 00:23:40;;;;;;;;;;;18.90;46.40;;;;;;5033127;28;20380;-65
2024/01/20 00:26:05;;;;;;;;;;;18.90;46.40;;;;;;5033451;28;19925;-65
2024/01/20 00:28:31;;;;;;;;;;;18.90;46.40;;;;;;5033820;28;19948;-65
2024/01/20 00:30:56;;;;;;;;;;;18.90;46.40;;;;;;5032889;28;20396;-65
2024/01/20 00:33:22;;;;;;;;;;;18.90;46.40;;;;;;5015881;28;19925;-65
2024/01/20 00:35:47;;;;;;;;;;;18.90;46.40;;;;;;5033069;28;19936;-65
2024/01/20 00:38:13;;;;;;;;;;;18.90;46.50;;;;;;5033563;28;19925;-65
2024/01/20 00:40:38;;;;;;;;;;;18.90;46.50;;;;;;5016062;28;19928;-65
2024/01/20 00:43:04;;;;;;;;;;;18.80;46.40;;;;;;5032412;28;19925;-65
2024/01/20 00:45:29;;;;;;;;;;;18.80;46.40;;;;;;5023594;28;20376;-65
2024/01/20 00:47:55;;;;;;;;;;;18.80;46.30;;;;;;5013556;28;19925;-65
2024/01/20 00:50:20;;;;;;;;;;;18.80;46.40;;;;;;5012917;28;19970;-65
2024/01/20 00:52:46;;;;;;;;;;;18.80;46.40;;;;;;4996158;28;20019;-65
2024/01/20 00:55:12;;;;;;;;;;;18.80;46.40;;;;;;4995707;28;19933;-65
2024/01/20 00:57:37;;;;;;;;;;;18.80;46.40;;;;;;5012928;28;19929;-65
2024/01/20 01:00:08;;;;;;;;;;;18.80;46.30;;;;;;5015057;28;19929;-64
2024/01/20 01:02:33;;;;;;;;;;;18.80;46.40;;;;;;5033487;28;20396;-64
2024/01/20 01:04:59;;;;;;;;;;;18.70;46.30;;;;;;5017903;28;19946;-65
2024/01/20 01:07:24;;;;;;;;;;;18.70;46.30;;;;;;5035273;28;20389;-65
2024/01/20 01:09:50;;;;;;;;;;;18.70;46.30;;;;;;5052784;28;19925;-65
2024/01/20 01:12:15;;;;;;;;;;;18.70;46.30;;;;;;5051876;28;20253;-64
2024/01/20 01:14:41;;;;;;;;;;;18.70;46.30;;;;;;5049547;28;19949;-65
2024/01/20 01:17:06;;;;;;;;;;;18.70;46.30;;;;;;5033078;28;20018;-65
2024/01/20 01:19:32;;;;;;;;;;;18.70;46.30;;;;;;5032320;28;19925;-65
2024/01/20 01:21:57;;;;;;;;;;;18.70;46.30;;;;;;5032879;28;20331;-65
2024/01/20 01:24:23;;;;;;;;;;;18.70;46.30;;;;;;5033207;28;19932;-65
2024/01/20 01:26:48;;;;;;;;;;;18.70;46.30;;;;;;5014439;28;19932;-65
2024/01/20 01:29:14;;;;;;;;;;;18.70;46.30;;;;;;5014683;28;20296;-65
2024/01/20 01:31:39;;;;;;;;;;;18.70;46.40;;;;;;5032485;28;19921;-65
2024/01/20 01:34:05;;;;;;;;;;;18.60;46.30;;;;;;5031675;28;19992;-65
2024/01/20 01:36:30;;;;;;;;;;;18.60;46.40;;;;;;5033154;28;19925;-65
2024/01/20 01:38:56;;;;;;;;;;;18.70;46.40;;;;;;5015024;28;19991;-65
2024/01/20 01:41:21;;;;;;;;;;;18.60;46.40;;;;;;5032451;28;19925;-65
2024/01/20 01:43:47;;;;;;;;;;;18.60;46.30;;;;;;5033216;28;19935;-65
2024/01/20 01:46:13;;;;;;;;;;;18.70;46.40;;;;;;5017712;28;20427;-65
2024/01/20 01:48:38;;;;;;;;;;;18.60;46.30;;;;;;4996829;28;19925;-65
2024/01/20 01:51:04;;;;;;;;;;;18.60;46.30;;;;;;4979449;28;19956;-65
2024/01/20 01:53:31;;;;;;;;;;;18.70;46.30;;;;;;4995111;28;19926;-65
2024/01/20 01:55:58;;;;;;;;;;;18.70;46.30;;;;;;4995114;28;19925;-65
2024/01/20 01:58:23;;;;;;;;;;;18.70;46.30;;;;;;4995389;28;20299;-64
2024/01/20 02:00:49;;;;;;;;;;;18.70;46.20;;;;;;4978564;28;20324;-64
2024/01/20 02:03:15;;;;;;;;;;;18.70;46.30;;;;;;4994997;28;19926;-65
2024/01/20 02:05:41;;;;;;;;;;;18.70;46.20;;;;;;4995674;28;19925;-65
2024/01/20 02:08:06;;;;;;;;;;;18.70;46.20;;;;;;4994307;28;20297;-65
2024/01/20 02:10:32;;;;;;;;;;;18.70;46.20;;;;;;4995619;28;19926;-65
2024/01/20 02:12:57;;;;;;;;;;;18.70;46.20;;;;;;5012527;28;19929;-65
2024/01/20 02:15:23;;;;;;;;;;;18.70;46.10;;;;;;5012051;28;19932;-65
2024/01/20 02:17:51;;;;;;;;;;;18.70;46.10;;;;;;5012954;28;19925;-65
2024/01/20 02:20:17;;;;;;;;;;;18.70;46.20;;;;;;4997165;28;19925;-65
2024/01/20 02:22:42;;;;;;;;;;;18.70;46.20;;;;;;4998627;28;20015;-65
2024/01/20 02:25:08;;;;;;;;;;;18.70;46.10;;;;;;5015953;28;20369;-65
2024/01/20 02:27:33;;;;;;;;;;;18.70;46.10;;;;;;5016349;28;19926;-65
2024/01/20 02:29:59;;;;;;;;;;;18.70;46.00;;;;;;5015259;28;19980;-65
2024/01/20 02:32:24;;;;;;;;;;;18.70;46.10;;;;;;5016013;28;19925;-65
2024/01/20 02:34:50;;;;;;;;;;;18.80;46.00;;;;;;5016081;28;19971;-65
2024/01/20 02:37:15;;;;;;;;;;;18.80;46.10;;;;;;5015315;28;20317;-65
2024/01/20 02:39:41;;;;;;;;;;;18.80;46.00;;;;;;5016067;28;19929;-65
2024/01/20 02:42:08;;;;;;;;;;;18.80;46.00;;;;;;4998512;28;19947;-65
2024/01/20 02:44:34;;;;;;;;;;;18.80;46.00;;;;;;4997646;28;19937;-64
2024/01/20 02:46:59;;;;;;;;;;;18.80;46.00;;;;;;5015598;28;19992;-65
2024/01/20 02:49:25;;;;;;;;;;;18.80;45.90;;;;;;4997290;28;19929;-65
2024/01/20 02:51:50;;;;;;;;;;;18.80;46.00;;;;;;4998688;28;19936;-64
2024/01/20 02:54:16;;;;;;;;;;;18.80;45.90;;;;;;5015630;28;20296;-65
2024/01/20 02:56:41;;;;;;;;;;;18.80;45.90;;;;;;5015052;28;19960;-65
2024/01/20 02:59:07;;;;;;;;;;;18.80;45.90;;;;;;5027363;28;20316;-64
2024/01/20 03:01:33;;;;;;;;;;;18.80;45.80;;;;;;5029516;28;20365;-65
2024/01/20 03:03:58;;;;;;;;;;;18.90;46.00;;;;;;5016031;28;19936;-65
2024/01/20 03:06:24;;;;;;;;;;;18.90;45.90;;;;;;5017308;28;19921;-65
2024/01/20 03:08:49;;;;;;;;;;;18.90;45.90;;;;;;5035440;28;20364;-65
2024/01/20 03:11:15;;;;;;;;;;;18.90;45.90;;;;;;5033984;28;19931;-65
2024/01/20 03:13:40;;;;;;;;;;;18.90;45.90;;;;;;5035304;28;20376;-65
2024/01/20 03:16:08;;;;;;;;;;;18.90;45.90;;;;;;5034753;28;19929;-65
2024/01/20 03:18:33;;;;;;;;;;;18.90;45.90;;;;;;5021050;28;20499;-65
2024/01/20 03:20:59;;;;;;;;;;;18.90;45.90;;;;;;5054835;28;19974;-65
2024/01/20 03:23:24;;;;;;;;;;;18.90;45.90;;;;;;5054901;28;19925;-65
2024/01/20 03:25:50;;;;;;;;;;;18.90;45.90;;;;;;5036224;28;20388;-65
2024/01/20 03:28:15;;;;;;;;;;;18.90;45.90;;;;;;5054575;28;19924;-65
2024/01/20 03:30:41;;;;;;;;;;;18.90;45.90;;;;;;5047819;28;19925;-65
2024/01/20 03:33:06;;;;;;;;;;;18.90;45.80;;;;;;5031247;28;19932;-65
2024/01/20 03:35:32;;;;;;;;;;;18.90;45.80;;;;;;5037045;28;19947;-65
2024/01/20 03:37:57;;;;;;;;;;;19.00;45.80;;;;;;5054400;28;20394;-65
2024/01/20 03:40:23;;;;;;;;;;;19.00;45.80;;;;;;5053754;28;19925;-65
2024/01/20 03:42:48;;;;;;;;;;;19.00;45.80;;;;;;5054677;28;19925;-65
2024/01/20 03:45:14;;;;;;;;;;;19.00;45.80;;;;;;5054360;28;20015;-65
2024/01/20 03:47:39;;;;;;;;;;;19.00;45.80;;;;;;5053949;28;19925;-65
2024/01/20 03:50:06;;;;;;;;;;;19.00;45.80;;;;;;5054172;28;20011;-65
2024/01/20 03:52:31;;;;;;;;;;;19.00;45.80;;;;;;5054522;28;19920;-65
2024/01/20 03:54:57;;;;;;;;;;;19.00;45.70;;;;;;5053189;28;19979;-65
2024/01/20 03:57:23;;;;;;;;;;;19.00;45.70;;;;;;5054570;28;19924;-65
2024/01/20 03:59:49;;;;;;;;;;;19.00;45.70;;;;;;5035921;28;19975;-65
2024/01/20 04:02:14;;;;;;;;;;;19.00;45.70;;;;;;5054064;28;20349;-65
2024/01/20 04:04:40;;;;;;;;;;;19.10;45.70;;;;;;5054165;28;19978;-65
2024/01/20 04:07:05;;;;;;;;;;;19.10;45.70;;;;;;5035218;28;20399;-65
2024/01/20 04:09:31;;;;;;;;;;;19.10;45.70;;;;;;5034704;28;19929;-65
2024/01/20 04:11:56;;;;;;;;;;;19.10;45.70;;;;;;5033551;28;20361;-65
2024/01/20 04:14:22;;;;;;;;;;;19.10;45.60;;;;;;5033638;28;19925;-65
2024/01/20 04:16:47;;;;;;;;;;;19.10;45.60;;;;;;5033950;28;19984;-65
2024/01/20 04:19:13;;;;;;;;;;;19.10;45.60;;;;;;5033566;28;20387;-65
2024/01/20 04:21:39;;;;;;;;;;;19.20;45.60;;;;;;5033147;28;19925;-65
2024/01/20 04:24:05;;;;;;;;;;;19.20;45.60;;;;;;5015847;28;19947;-65
2024/01/20 04:26:30;;;;;;;;;;;19.20;45.60;;;;;;5033736;28;20027;-65
2024/01/20 04:28:56;;;;;;;;;;;19.20;45.60;;;;;;5032963;28;19984;-65
2024/01/20 04:31:21;;;;;;;;;;;19.20;45.60;;;;;;5016262;28;19927;-65
2024/01/20 04:33:47;;;;;;;;;;;19.20;45.50;;;;;;5033546;28;19925;-65
2024/01/20 04:36:12;;;;;;;;;;;19.20;45.50;;;;;;5032565;28;19931;-65
2024/01/20 04:38:40;;;;;;;;;;;19.20;45.50;;;;;;5015346;28;20152;-65
2024/01/20 04:41:05;;;;;;;;;;;19.20;45.50;;;;;;5033534;28;19952;-65
2024/01/20 04:43:31;;;;;;;;;;;19.30;45.60;;;;;;5032702;28;19925;-65
2024/01/20 04:45:56;;;;;;;;;;;19.30;45.50;;;;;;5033217;28;19925;-65
2024/01/20 04:48:22;;;;;;;;;;;19.30;45.50;;;;;;5015370;28;19975;-65
2024/01/20 04:50:47;;;;;;;;;;;19.30;45.50;;;;;;5052164;28;19968;-65
2024/01/20 04:53:13;;;;;;;;;;;19.30;45.50;;;;;;5035386;28;19951;-65
2024/01/20 04:55:38;;;;;;;;;;;19.30;45.50;;;;;;5035396;28;20291;-65
2024/01/20 04:58:04;;;;;;;;;;;19.30;45.50;;;;;;5034537;28;19979;-65
2024/01/20 05:00:30;;;;;;;;;;;19.30;45.50;;;;;;5033392;28;19971;-64
2024/01/20 05:02:55;;;;;;;;;;;19.30;45.40;;;;;;5024389;28;19932;-64
2024/01/20 05:05:20;;;;;;;;;;;19.30;45.40;;;;;;5032212;28;19929;-65
2024/01/20 05:07:46;;;;;;;;;;;19.40;45.40;;;;;;5015476;28;20512;-65
2024/01/20 05:10:11;;;;;;;;;;;19.40;45.40;;;;;;5032042;28;19983;-65
2024/01/20 05:12:37;;;;;;;;;;;19.40;45.30;;;;;;5033228;28;20324;-65
2024/01/20 05:15:03;;;;;;;;;;;19.40;45.30;;;;;;5033023;28;19995;-65
2024/01/20 05:17:28;;;;;;;;;;;19.40;45.30;;;;;;5014484;28;19960;-65
2024/01/20 05:19:54;;;;;;;;;;;19.40;45.30;;;;;;5032979;28;19932;-65
2024/01/20 05:22:19;;;;;;;;;;;19.40;45.30;;;;;;5015393;28;20284;-65
2024/01/20 05:24:46;;;;;;;;;;;19.40;45.30;;;;;;5032429;28;19979;-65
2024/01/20 05:27:12;;;;;;;;;;;19.40;45.30;;;;;;5032678;28;19933;-65
2024/01/20 05:29:37;;;;;;;;;;;19.40;45.30;;;;;;5033231;28;19982;-64
2024/01/20 05:32:03;;;;;;;;;;;19.40;45.30;;;;;;5014184;28;20288;-65
2024/01/20 05:34:28;;;;;;;;;;;19.50;45.40;;;;;;5032970;28;19933;-64
2024/01/20 05:36:54;;;;;;;;;;;19.40;45.30;;;;;;5014844;28;19929;-64
2024/01/20 05:39:19;;;;;;;;;;;19.40;45.30;;;;;;5014753;28;20083;-64
2024/01/20 05:41:45;;;;;;;;;;;19.50;45.30;;;;;;5015458;28;20000;-64
2024/01/20 05:44:10;;;;;;;;;;;19.50;45.40;;;;;;5032719;28;20717;-65
2024/01/20 05:46:36;;;;;;;;;;;19.50;45.40;;;;;;5032339;28;19928;-64
2024/01/20 05:49:01;;;;;;;;;;;19.50;45.40;;;;;;5032369;28;19925;-65
2024/01/20 05:51:27;;;;;;;;;;;19.50;45.40;;;;;;5032722;28;20452;-65
2024/01/20 05:53:52;;;;;;;;;;;19.50;45.30;;;;;;5031762;28;19932;-64
2024/01/20 05:56:20;;;;;;;;;;;19.50;45.40;;;;;;5036697;28;20328;-64
2024/01/20 05:58:46;;;;;;;;;;;19.50;45.30;;;;;;5037008;28;19925;-64
2024/01/20 06:01:11;;;;;;;;;;;19.50;45.30;;;;;;5035570;28;19929;-64
2024/01/20 06:03:37;;;;;;;;;;;19.50;45.40;;;;;;5036500;28;19948;-64
2024/01/20 06:06:02;;;;;;;;;;;19.50;45.30;;;;;;5036395;28;19925;-65
2024/01/20 06:08:28;;;;;;;;;;;19.50;45.40;;;;;;5035857;28;19952;-65
2024/01/20 06:10:53;;;;;;;;;;;19.50;45.30;;;;;;5036408;28;19956;-65
2024/01/20 06:13:19;;;;;;;;;;;19.60;45.30;;;;;;5035740;28;19929;-65
2024/01/20 06:15:44;;;;;;;;;;;19.50;45.30;;;;;;5036079;28;20019;-65
2024/01/20 06:18:10;;;;;;;;;;;19.60;45.30;;;;;;5036595;28;19925;-65
2024/01/20 06:20:35;;;;;;;;;;;19.60;45.40;;;;;;5017548;28;20804;-65
2024/01/20 06:23:01;;;;;;;;;;;19.60;45.30;;;;;;5035835;28;19925;-64
2024/01/20 06:25:26;;;;;;;;;;;19.60;45.30;;;;;;5036199;28;19921;-65
2024/01/20 06:27:52;;;;;;;;;;;19.60;45.30;;;;;;5035129;28;20388;-64
2024/01/20 06:30:18;;;;;;;;;;;19.60;45.30;;;;;;5036313;28;19925;-63
2024/01/20 06:32:43;;;;;;;;;;;19.60;45.30;;;;;;5046482;28;20305;-64
2024/01/20 06:35:09;;;;;;;;;;;19.60;45.30;;;;;;5045182;28;19978;-64
2024/01/20 06:37:34;;;;;;;;;;;19.60;45.30;;;;;;5035598;28;19929;-64
2024/01/20 06:40:00;;;;;;;;;;;19.60;45.30;;;;;;5017594;28;20373;-64
2024/01/20 06:42:25;;;;;;;;;;;19.60;46.00;;;;;;5017093;28;20011;-65
2024/01/20 06:44:51;;;;;;;;;;;19.60;45.70;;;;;;5049909;28;20279;-66
2024/01/20 06:47:17;;;;;;;;;;;19.60;46.00;;;;;;5055438;28;19928;-65
2024/01/20 06:49:43;;;;;;;;;;;19.60;45.40;;;;;;5054565;28;19928;-64
2024/01/20 06:52:09;;;;;;;;;;;19.70;45.50;;;;;;5055074;28;19920;-64
2024/01/20 06:54:35;;;;;;;;;;;19.70;45.50;;;;;;5055503;28;19961;-64
2024/01/20 06:57:00;;;;;;;;;;;19.70;45.50;;;;;;5036063;28;19975;-64
2024/01/20 06:59:26;;;;;;;;;;;19.70;45.60;;;;;;5018608;28;19925;-63
2024/01/20 07:01:51;;;;;;;;;;;19.70;45.50;;;;;;5031991;28;19956;-64
2024/01/20 07:04:17;;;;;;;;;;;19.70;45.60;;;;;;5016346;28;19925;-64
2024/01/20 07:06:42;;;;;;;;;;;19.70;45.70;;;;;;5015975;28;19967;-64
2024/01/20 07:09:08;;;;;;;;;;;19.70;45.70;;;;;;5048406;28;20052;-67
2024/01/20 07:11:33;;;;;;;;;;;19.70;45.80;;;;;;5036881;28;19925;-64
2024/01/20 07:13:58;;;;;;;;;;;19.70;45.90;;;;;;5023397;28;20012;-63
2024/01/20 07:16:24;;;;;;;;;;;19.70;46.00;;;;;;5025207;28;19932;-62
2024/01/20 07:18:49;;;;;;;;;;;19.70;46.00;;;;;;5011547;28;19976;-62
2024/01/20 07:21:15;;;;;;;;;;;19.70;46.20;;;;;;5023884;28;19970;-63
2024/01/20 07:23:40;;;;;;;;;;;19.80;46.50;;;;;;5014908;28;19925;-63
2024/01/20 07:26:06;;;;;;;;;;;19.80;46.60;;;;;;5016195;28;19925;-62
2024/01/20 07:28:31;;;;;;;;;;;19.80;46.60;;;;;;5034569;28;20400;-64
2024/01/20 07:30:57;;;;;;;;;;;19.80;46.70;;;;;;5032933;28;20695;-63
2024/01/20 07:33:22;;;;;;;;;;;19.80;46.70;;;;;;5034695;28;19925;-63
2024/01/20 07:35:48;;;;;;;;;;;19.80;46.70;;;;;;5016202;28;19933;-62
2024/01/20 07:38:14;;;;;;;;;;;19.80;46.70;;;;;;5033161;28;20075;-63
2024/01/20 07:40:39;;;;;;;;;;;19.80;46.80;;;;;;5034740;28;19964;-63
2024/01/20 07:43:05;;;;;;;;;;;19.90;46.80;;;;;;5033998;28;19955;-63
2024/01/20 07:45:31;;;;;;;;;;;19.90;46.80;;;;;;5033491;28;19971;-63
2024/01/20 07:47:56;;;;;;;;;;;19.90;46.90;;;;;;5015520;28;19952;-63
2024/01/20 07:50:22;;;;;;;;;;;19.90;46.90;;;;;;5034538;28;19955;-62
2024/01/20 07:52:47;;;;;;;;;;;19.90;46.90;;;;;;5033457;28;19925;-62
2024/01/20 07:55:13;;;;;;;;;;;19.90;46.80;;;;;;5016388;28;19926;-62
2024/01/20 07:57:39;;;;;;;;;;;19.90;46.80;;;;;;5033124;28;19937;-63
2024/01/20 08:00:05;;;;;;;;;;;19.90;46.90;;;;;;5032975;28;19925;-62
2024/01/20 08:02:30;;;;;;;;;;;19.90;46.70;;;;;;5033606;28;19932;-63
2024/01/20 08:04:56;;;;;;;;;;;19.90;46.60;;;;;;5032391;28;19978;-62
2024/01/20 08:07:21;;;;;;;;;;;19.90;46.30;;;;;;5032892;28;19964;-62
2024/01/20 08:09:46;;;;;;;;;;;19.90;46.40;;;;;;5014644;28;19925;-62
2024/01/20 08:12:13;;;;;;;;;;;19.90;46.40;;;;;;5033694;28;19932;-64
2024/01/20 08:14:38;;;;;;;;;;;19.90;46.50;;;;;;5033489;28;20008;-63
2024/01/20 08:17:04;;;;;;;;;;;19.90;46.50;;;;;;5033426;28;20020;-63
2024/01/20 08:19:29;;;;;;;;;;;19.90;46.50;;;;;;5033937;28;19932;-63
2024/01/20 08:21:54;;;;;;;;;;;19.90;46.50;;;;;;5033063;28;19932;-63
2024/01/20 08:24:20;;;;;;;;;;;19.90;46.50;;;;;;5033761;28;20444;-63
2024/01/20 08:26:46;;;;;;;;;;;20.00;46.60;;;;;;5053459;28;20380;-63
2024/01/20 08:29:11;;;;;;;;;;;19.90;46.60;;;;;;5052841;28;20067;-70
2024/01/20 08:31:37;;;;;;;;;;;20.00;46.70;;;;;;5051961;28;19960;-61
2024/01/20 08:34:02;;;;;;;;;;;20.00;46.70;;;;;;5012733;28;20024;-66
2024/01/20 08:36:28;;;;;;;;;;;20.00;46.60;;;;;;5013419;28;19952;-64
2024/01/20 08:38:53;;;;;;;;;;;20.00;46.60;;;;;;5030633;28;20417;-64
2024/01/20 08:41:19;;;;;;;;;;;20.00;46.80;;;;;;5031208;28;19921;-65
2024/01/20 08:43:45;;;;;;;;;;;20.00;47.00;;;;;;5033004;28;20308;-65
2024/01/20 08:46:11;;;;;;;;;;;20.00;46.90;;;;;;5032068;28;19958;-64
2024/01/20 08:48:36;;;;;;;;;;;20.00;46.70;;;;;;5031174;28;19921;-65
2024/01/20 08:51:02;;;;;;;;;;;20.00;46.60;;;;;;5031615;28;19971;-65
2024/01/20 08:53:27;;;;;;;;;;;20.00;46.60;;;;;;5014750;28;20384;-65
2024/01/20 08:55:53;;;;;;;;;;;20.00;46.60;;;;;;5014668;28;20381;-64
2024/01/20 08:58:18;;;;;;;;;;;20.00;46.50;;;;;;5033732;28;19968;-64
2024/01/20 09:00:44;;;;;;;;;;;20.00;46.50;;;;;;5033416;28;19921;-64
2024/01/20 09:03:09;;;;;;;;;;;20.00;46.50;;;;;;5032110;28;19925;-64
2024/01/20 09:05:35;;;;;;;;;;;20.00;46.50;;;;;;5033367;28;20350;-65
2024/01/20 09:08:00;;;;;;;;;;;20.00;47.10;;;;;;5032860;28;20435;-65
2024/01/20 09:10:26;;;;;;;;;;;20.00;46.40;;;;;;5032775;28;19925;-65
2024/01/20 09:12:51;;;;;;;;;;;20.00;46.40;;;;;;5033029;28;19927;-65
2024/01/20 09:15:17;;;;;;;;;;;20.00;46.40;;;;;;5033341;28;20285;-65
2024/01/20 09:17:42;;;;;;;;;;;20.00;46.40;;;;;;5014933;28;19925;-65
2024/01/20 09:20:08;;;;;;;;;;;20.00;46.40;;;;;;5033057;28;20361;-65
2024/01/20 09:22:34;;;;;;;;;;;20.00;46.40;;;;;;5033172;28;20016;-65
2024/01/20 09:25:01;;;;;;;;;;;20.00;46.30;;;;;;5032308;28;19955;-65
2024/01/20 09:27:27;;;;;;;;;;;20.00;46.40;;;;;;5015313;28;20324;-65
2024/01/20 09:29:52;;;;;;;;;;;19.90;46.20;;;;;;5034270;28;19925;-65
2024/01/20 09:32:18;;;;;;;;;;;19.90;46.30;;;;;;5036388;28;20439;-65
2024/01/20 09:34:43;;;;;;;;;;;19.90;46.30;;;;;;5037378;28;19925;-64
2024/01/20 09:37:09;;;;;;;;;;;19.90;46.30;;;;;;5037054;28;20319;-65
2024/01/20 09:39:34;;;;;;;;;;;19.90;46.30;;;;;;5036351;28;20440;-65
2024/01/20 09:42:00;;;;;;;;;;;19.90;46.30;;;;;;5036544;28;19932;-64
2024/01/20 09:44:25;;;;;;;;;;;19.90;46.30;;;;;;5036189;28;19972;-65
2024/01/20 09:46:51;;;;;;;;;;;19.90;46.20;;;;;;5036818;28;19975;-65
2024/01/20 09:49:17;;;;;;;;;;;19.90;46.30;;;;;;5036750;28;20292;-65
2024/01/20 09:51:49;;;;;;;;;;;19.90;46.30;;;;;;5036367;28;19925;-65
2024/01/20 09:54:14;;;;;;;;;;;19.90;46.30;;;;;;5019096;28;19925;-65
2024/01/20 09:56:40;;;;;;;;;;;19.90;46.30;;;;;;5036977;28;20431;-65
2024/01/20 09:59:05;;;;;;;;;;;19.90;46.30;;;;;;5018333;28;19925;-65
2024/01/20 10:01:31;;;;;;;;;;;19.90;46.30;;;;;;5019138;28;20439;-64
2024/01/20 10:03:57;;;;;;;;;;;19.90;46.30;;;;;;5018747;28;20274;-65
2024/01/20 10:06:24;;;;;;;;;;;20.00;46.30;;;;;;5017961;28;20008;-65
2024/01/20 10:08:50;;;;;;;;;;;19.90;46.30;;;;;;5036539;28;19979;-65
2024/01/20 10:11:15;;;;;;;;;;;19.90;46.30;;;;;;5018909;28;19925;-65
2024/01/20 10:13:41;;;;;;;;;;;19.90;46.20;;;;;;5035814;28;20058;-65
2024/01/20 10:16:06;;;;;;;;;;;19.90;46.20;;;;;;5035954;28;19925;-65
2024/01/20 10:18:33;;;;;;;;;;;20.00;46.40;;;;;;5036430;28;19925;-65
2024/01/20 10:21:02;;;;;;;;;;;20.00;46.30;;;;;;5001560;28;19925;-65
2024/01/20 10:23:27;;;;;;;;;;;19.90;46.20;;;;;;5036223;28;20454;-65
2024/01/20 10:26:00;;;;;;;;;;;19.90;46.20;;;;;;5035860;28;19925;-65
2024/01/20 10:28:26;;;;;;;;;;;20.00;46.30;;;;;;5035620;28;20016;-65
2024/01/20 10:30:51;;;;;;;;;;;20.00;46.30;;;;;;5018531;28;19960;-65
2024/01/20 10:33:16;;;;;;;;;;;20.00;46.30;;;;;;5036207;28;20372;-65
2024/01/20 10:35:42;;;;;;;;;;;20.00;46.20;;;;;;5017769;28;19932;-65
2024/01/20 10:38:09;;;;;;;;;;;20.00;46.30;;;;;;5035884;28;20337;-65
2024/01/20 10:40:35;;;;;;;;;;;20.00;46.20;;;;;;5034872;28;19952;-64
2024/01/20 10:43:10;;;;;;;;;;;20.00;46.30;;;;;;5018101;28;19925;-65
2024/01/20 10:45:38;;;;;;;;;;;20.00;46.30;;;;;;5001826;28;19925;-65
2024/01/20 10:48:07;;;;;;;;;;;20.00;46.20;;;;;;5017182;28;20008;-65
2024/01/20 10:50:32;;;;;;;;;;;20.00;46.20;;;;;;5035929;28;19933;-65
2024/01/20 10:52:58;;;;;;;;;;;20.00;46.20;;;;;;5017896;28;19925;-65
2024/01/20 10:55:24;;;;;;;;;;;20.00;46.20;;;;;;5034872;28;19972;-65
2024/01/20 10:57:49;;;;;;;;;;;20.00;46.20;;;;;;5001888;28;19933;-65
2024/01/20 11:00:15;;;;;;;;;;;20.00;46.20;;;;;;5035250;28;19952;-65
2024/01/20 11:02:41;;;;;;;;;;;20.00;46.20;;;;;;5034807;28;19926;-65
2024/01/20 11:05:22;;;;;;;;;;;19.90;46.20;;;;;;5017655;28;19991;-65
2024/01/20 11:07:57;;;;;;;;;;;19.90;46.10;;;;;;5035441;28;20323;-65
2024/01/20 11:10:23;;;;;;;;;;;19.90;46.10;;;;;;5034567;28;20634;-65
2024/01/20 11:12:59;;;;;;;;;;;19.90;46.10;;;;;;5017603;28;19983;-65
2024/01/20 11:15:27;;;;;;;;;;;19.90;46.10;;;;;;5035353;28;20012;-65
2024/01/20 11:17:53;;;;;;;;;;;19.90;46.10;;;;;;5016765;28;20281;-65
2024/01/20 11:20:18;;;;;;;;;;;19.90;46.10;;;;;;5035253;28;19952;-65
2024/01/20 11:22:44;;;;;;;;;;;19.90;46.10;;;;;;5034727;28;19948;-65
2024/01/20 11:25:10;;;;;;;;;;;19.90;46.10;;;;;;5034373;28;20364;-64
2024/01/20 11:27:47;;;;;;;;;;;19.90;46.10;;;;;;5035065;28;20300;-65
2024/01/20 11:30:13;;;;;;;;;;;19.90;46.10;;;;;;5033875;28;20292;-65
2024/01/20 11:32:39;;;;;;;;;;;19.90;46.10;;;;;;5017296;28;19929;-65
2024/01/20 11:35:05;;;;;;;;;;;19.90;46.80;;;;;;5034441;28;19925;-65
2024/01/20 11:37:31;;;;;;;;;;;19.90;46.80;;;;;;5034181;28;20292;-65
2024/01/20 11:40:03;;;;;;;;;;;19.90;46.10;;;;;;5034622;28;19932;-65
2024/01/20 11:42:29;;;;;;;;;;;19.90;46.10;;;;;;5017391;28;19925;-65
2024/01/20 11:44:55;;;;;;;;;;;19.90;46.10;;;;;;5033973;28;20027;-65
2024/01/20 11:47:20;;;;;;;;;;;19.90;46.10;;;;;;5035031;28;20024;-65
2024/01/20 11:49:46;;;;;;;;;;;19.90;46.20;;;;;;5034408;28;20285;-65
2024/01/20 11:52:12;;;;;;;;;;;19.90;46.10;;;;;;5032984;28;20032;-65
2024/01/20 11:54:37;;;;;;;;;;;19.90;46.10;;;;;;5034692;28;20028;-65
2024/01/20 11:57:04;;;;;;;;;;;19.90;46.10;;;;;;5034410;28;19925;-65
2024/01/20 11:59:29;;;;;;;;;;;19.90;46.10;;;;;;5033814;28;19929;-65
2024/01/20 12:01:55;;;;;;;;;;;19.90;46.10;;;;;;5034120;28;20027;-65
2024/01/20 12:04:20;;;;;;;;;;;19.90;46.10;;;;;;5025931;28;19924;-65
2024/01/20 12:06:46;;;;;;;;;;;19.90;46.10;;;;;;5053732;28;19929;-65
2024/01/20 12:09:11;;;;;;;;;;;19.90;46.10;;;;;;5036131;28;20403;-65
2024/01/20 12:11:37;;;;;;;;;;;19.90;46.10;;;;;;5054470;28;19925;-65
2024/01/20 12:14:02;;;;;;;;;;;19.90;46.10;;;;;;5035646;28;20032;-65
2024/01/20 12:16:28;;;;;;;;;;;19.90;46.10;;;;;;5054258;28;19925;-65
2024/01/20 12:18:53;;;;;;;;;;;19.80;46.10;;;;;;5019335;28;19998;-65
2024/01/20 12:21:19;;;;;;;;;;;19.90;46.10;;;;;;5035456;28;19929;-65
2024/01/20 12:23:45;;;;;;;;;;;19.80;46.10;;;;;;5053986;28;19952;-65
2024/01/20 12:26:14;;;;;;;;;;;19.80;46.10;;;;;;5052824;28;19928;-65
2024/01/20 12:28:39;;;;;;;;;;;19.80;46.00;;;;;;5036342;28;19928;-65
2024/01/20 12:31:05;;;;;;;;;;;19.80;46.10;;;;;;5053472;28;19928;-65
2024/01/20 12:33:30;;;;;;;;;;;19.80;46.10;;;;;;5052763;28;19971;-65
2024/01/20 12:35:56;;;;;;;;;;;19.80;46.10;;;;;;5053247;28;20265;-65
2024/01/20 12:38:21;;;;;;;;;;;19.80;46.10;;;;;;5053705;28;20023;-65
2024/01/20 12:40:47;;;;;;;;;;;19.90;46.10;;;;;;5053175;28;20357;-65
2024/01/20 12:43:12;;;;;;;;;;;19.90;46.10;;;;;;5035720;28;19971;-65
2024/01/20 12:45:37;;;;;;;;;;;19.90;46.10;;;;;;5053614;28;20049;-65
2024/01/20 12:48:03;;;;;;;;;;;19.90;46.80;;;;;;5052568;28;19925;-65
2024/01/20 12:50:29;;;;;;;;;;;19.90;46.20;;;;;;5053746;28;20086;-65
2024/01/20 12:52:54;;;;;;;;;;;19.80;46.10;;;;;;5053365;28;20495;-65
2024/01/20 12:55:20;;;;;;;;;;;19.90;46.10;;;;;;5052523;28;19925;-65
2024/01/20 12:57:46;;;;;;;;;;;19.90;46.10;;;;;;5053430;28;20447;-65
2024/01/20 13:00:12;;;;;;;;;;;19.90;46.20;;;;;;5034939;28;19952;-65
2024/01/20 13:02:37;;;;;;;;;;;19.90;46.10;;;;;;5018699;28;20361;-65
2024/01/20 13:05:03;;;;;;;;;;;19.90;46.00;;;;;;5027420;28;20010;-65
2024/01/20 13:07:30;;;;;;;;;;;19.90;46.10;;;;;;5033552;28;19925;-65
2024/01/20 13:09:55;;;;;;;;;;;19.90;46.10;;;;;;5032494;28;19980;-65
2024/01/20 13:12:21;;;;;;;;;;;19.90;46.10;;;;;;5015479;28;20450;-65
2024/01/20 13:14:46;;;;;;;;;;;19.90;46.10;;;;;;5033436;28;20015;-65
2024/01/20 13:17:13;;;;;;;;;;;19.90;46.00;;;;;;5032264;28;19925;-65
2024/01/20 13:19:39;;;;;;;;;;;19.90;46.10;;;;;;5033266;28;19933;-65
2024/01/20 13:22:04;;;;;;;;;;;19.80;46.00;;;;;;5015161;28;19921;-65
2024/01/20 13:24:29;;;;;;;;;;;19.90;46.00;;;;;;5032364;28;19929;-65
2024/01/20 13:26:55;;;;;;;;;;;19.90;46.10;;;;;;5014991;28;19984;-66
2024/01/20 13:29:20;;;;;;;;;;;19.90;46.00;;;;;;5032662;28;19995;-65
2024/01/20 13:31:46;;;;;;;;;;;19.90;46.10;;;;;;5015503;28;19925;-65
2024/01/20 13:34:11;;;;;;;;;;;19.90;46.00;;;;;;5014855;28;19928;-65
2024/01/20 13:36:37;;;;;;;;;;;19.90;46.00;;;;;;5032496;28;19988;-65
2024/01/20 13:39:04;;;;;;;;;;;19.90;46.00;;;;;;5033031;28;19925;-65
2024/01/20 13:41:31;;;;;;;;;;;19.90;46.00;;;;;;5033287;28;19925;-65
2024/01/20 13:43:57;;;;;;;;;;;19.90;46.00;;;;;;5032030;28;19929;-65
2024/01/20 13:46:22;;;;;;;;;;;19.90;46.00;;;;;;5015440;28;19925;-65
2024/01/20 13:48:48;;;;;;;;;;;20.00;46.10;;;;;;5033019;28;19925;-65
2024/01/20 13:51:14;;;;;;;;;;;20.00;46.10;;;;;;5031867;28;19927;-65
2024/01/20 13:53:39;;;;;;;;;;;20.00;46.10;;;;;;5033069;28;20395;-65
2024/01/20 13:56:05;;;;;;;;;;;20.00;46.00;;;;;;5032600;28;19926;-64
2024/01/20 13:58:30;;;;;;;;;;;20.00;46.00;;;;;;5014423;28;20384;-65
2024/01/20 14:00:56;;;;;;;;;;;20.00;46.10;;;;;;5032458;28;19921;-65
2024/01/20 14:03:21;;;;;;;;;;;20.10;46.10;;;;;;5015214;28;19933;-65
2024/01/20 14:05:49;;;;;;;;;;;20.10;46.10;;;;;;5032303;28;20253;-65
2024/01/20 14:08:14;;;;;;;;;;;20.10;46.10;;;;;;5032731;28;19947;-65